Country
Station

 

Weather  for  Cuernavaca, Mor.  -  Mexico    Mexico

  
29 °C (84 °F)
    
 
 

Current METAR for Cuernavaca, Mor. is :

MMCB 240043Z 17003KT 12SM SKC 29/06 A3004

 

This is a report for Cuernavaca, Mor. - Mexico.
 
The report was made 2 hours and 24 minutes ago, at 00:43 UTC .
The wind was blowing at a speed of 1.5 meters per second (3.5 miles per hour) from south (170°).
 
The temperature was 29 °C (84 °F), with a dew-point at 6 °C (43 °F).
The temperature felt like 27 °C (81 °F).
 
The atmospheric pressure was 1017 hPa (30.04 inHg).
The relative humidity was 23.3%.
 
The sky was clear.
 
The overall visibility was 19.3 kilometers (12.0 miles).
 

 
 
 
 

Country :   A   B   C   D   E   F   G   H   I   J   K   L   M   N   O   P   Q   R   S   T   U   V   W   Y   Z

 

Site Info  |  Disclaimer  |  Credits  |  Privacy
Contact us  |  Add to favorites
© 2013-2020 METARs - All rights reserved